Time;durP1;ratioP1;P1;durP2;ratioP2;P2;SDS_P1;SDS_P2;PMS_P1;PMS_P2;Temp;Humidity;BMP_temperature;BMP_pressure;BME280_temperature;BME280_humidity;BME280_pressure;Samples;Min_cycle;Max_cycle;Signal;HPM_P1;HPM_P2
2021/01/04 00:02:35;;;;;;;28.83;12.50;;;0.20;99.90;;;;;;5339587;27;20285;-72
2021/01/04 00:05:20;;;;;;;26.93;11.10;;;0.20;99.90;;;;;;5341434;27;20666;-68
2021/01/04 00:08:21;;;;;;;29.03;11.70;;;0.20;99.90;;;;;;5340173;27;20221;-73
2021/01/04 00:11:21;;;;;;;30.27;11.57;;;0.20;99.90;;;;;;5338730;27;20198;-69
2021/01/04 00:18:27;;;;;;;30.50;12.30;;;0.30;99.90;;;;;;5337123;27;20679;-76
2021/01/04 00:21:23;;;;;;;29.23;12.00;;;0.30;99.90;;;;;;5336095;27;20198;-69
2021/01/04 00:24:00;;;;;;;32.73;12.00;;;0.30;99.90;;;;;;5336468;27;20636;-69
2021/01/04 00:26:49;;;;;;;31.70;12.83;;;0.30;99.90;;;;;;5336652;27;20688;-66
2021/01/04 00:29:21;;;;;;;33.33;13.73;;;0.30;99.90;;;;;;5318247;27;20190;-71
2021/01/04 00:31:59;;;;;;;27.67;12.53;;;0.30;99.90;;;;;;5336733;27;20194;-73
2021/01/04 00:34:41;;;;;;;31.00;12.63;;;0.30;99.90;;;;;;5336392;27;20193;-73
2021/01/04 00:37:30;;;;;;;23.13;10.13;;;0.30;99.90;;;;;;5337407;27;20202;-72
2021/01/04 00:40:17;;;;;;;23.40;10.43;;;0.30;99.90;;;;;;5336867;27;20194;-73
2021/01/04 00:47:31;;;;;;;18.70;9.00;;;0.30;99.90;;;;;;5337722;27;20227;-74
2021/01/04 00:50:12;;;;;;;22.10;10.03;;;0.30;99.90;;;;;;5326937;27;20202;-75
2021/01/04 00:52:52;;;;;;;24.57;10.67;;;0.30;99.90;;;;;;5335632;27;20273;-70
2021/01/04 00:55:29;;;;;;;24.97;11.47;;;0.30;99.90;;;;;;5335669;27;20190;-72
2021/01/04 01:02:31;;;;;;;20.17;9.10;;;0.30;99.90;;;;;;5225092;28;20213;-71
2021/01/04 01:05:15;;;;;;;26.00;10.73;;;0.30;99.90;;;;;;5227618;28;20296;-74
2021/01/04 01:08:05;;;;;;;26.30;11.33;;;0.30;99.90;;;;;;5228029;28;20228;-71
2021/01/04 01:10:52;;;;;;;24.30;12.07;;;0.30;99.90;;;;;;5227516;28;20269;-72
2021/01/04 01:13:45;;;;;;;30.40;13.80;;;0.30;99.90;;;;;;5227245;28;20201;-69
2021/01/04 01:16:39;;;;;;;26.60;13.80;;;0.30;99.90;;;;;;5227098;28;20196;-72
2021/01/04 01:19:17;;;;;;;21.90;11.83;;;0.30;99.90;;;;;;5233867;28;20209;-72
2021/01/04 01:21:49;;;;;;;25.73;13.10;;;0.30;99.90;;;;;;5227517;28;20196;-69
2021/01/04 01:24:20;;;;;;;29.17;14.07;;;0.30;99.90;;;;;;5226212;28;20563;-72
2021/01/04 01:27:21;;;;;;;26.93;13.57;;;0.30;99.90;;;;;;5227054;28;20630;-70
2021/01/04 01:29:55;;;;;;;31.10;13.47;;;0.30;99.90;;;;;;5227055;28;20196;-70
2021/01/04 01:32:48;;;;;;;26.70;12.40;;;0.30;99.90;;;;;;5226871;28;20657;-70
2021/01/04 01:35:54;;;;;;;24.60;11.87;;;0.30;99.90;;;;;;5226963;28;20194;-68
2021/01/04 01:38:37;;;;;;;32.00;13.47;;;0.30;99.90;;;;;;5288373;27;20644;-70
2021/01/04 01:41:37;;;;;;;29.20;12.57;;;0.30;99.90;;;;;;5313810;27;20634;-73
2021/01/04 01:48:17;;;;;;;23.97;12.27;;;0.30;99.90;;;;;;5314768;27;20206;-72
2021/01/04 01:51:01;;;;;;;27.20;12.73;;;0.20;99.90;;;;;;5313685;27;20191;-71
2021/01/04 01:53:52;;;;;;;27.97;12.60;;;0.20;99.90;;;;;;5312617;27;20204;-76
2021/01/04 01:56:38;;;;;;;27.90;13.03;;;0.30;99.90;;;;;;5312680;27;20225;-75
2021/01/04 01:59:29;;;;;;;19.87;11.20;;;0.30;99.90;;;;;;5312831;27;20201;-73
2021/01/04 02:02:03;;;;;;;22.23;11.10;;;0.30;99.90;;;;;;5294331;27;20194;-73
2021/01/04 02:04:51;;;;;;;23.10;11.73;;;0.30;99.90;;;;;;5330297;27;20243;-70
2021/01/04 02:08:03;;;;;;;20.50;9.63;;;0.30;99.90;;;;;;5316215;27;20225;-69
2021/01/04 02:10:42;;;;;;;23.83;9.90;;;0.30;99.90;;;;;;5247703;28;20642;-70
2021/01/04 02:13:33;;;;;;;22.23;10.23;;;0.30;99.90;;;;;;5247261;28;20209;-70
2021/01/04 02:16:12;;;;;;;24.40;10.17;;;0.20;99.90;;;;;;5230423;28;20205;-69
2021/01/04 02:19:17;;;;;;;18.67;9.83;;;0.20;99.90;;;;;;5247163;28;20204;-71
2021/01/04 02:21:52;;;;;;;30.57;10.87;;;0.30;99.90;;;;;;5246974;28;20193;-72
2021/01/04 02:24:25;;;;;;;19.40;9.90;;;0.30;99.90;;;;;;5246812;28;20222;-73
2021/01/04 02:27:25;;;;;;;20.60;9.90;;;0.30;99.90;;;;;;5230271;28;20219;-72
2021/01/04 02:33:53;;;;;;;18.33;8.80;;;0.30;99.90;;;;;;5246435;28;20242;-72
2021/01/04 02:36:26;;;;;;;19.53;9.57;;;0.20;99.90;;;;;;5247921;28;20250;-71
2021/01/04 02:39:35;;;;;;;23.43;9.97;;;0.30;99.90;;;;;;5248002;28;20208;-73
2021/01/04 02:42:27;;;;;;;22.17;10.80;;;0.30;99.90;;;;;;5246943;28;20200;-74
2021/01/04 02:45:04;;;;;;;18.00;9.87;;;0.20;99.90;;;;;;5309071;27;20199;-72
2021/01/04 02:47:59;;;;;;;20.10;9.83;;;0.20;99.90;;;;;;5333502;27;20667;-73
2021/01/04 02:50:49;;;;;;;19.93;9.57;;;0.30;99.90;;;;;;5333421;27;20190;-73
2021/01/04 02:53:45;;;;;;;15.60;8.90;;;0.20;99.90;;;;;;5333382;27;20188;-71
2021/01/04 02:56:16;;;;;;;15.97;8.50;;;0.20;99.90;;;;;;5333516;27;20209;-73
2021/01/04 03:02:58;;;;;;;15.53;8.20;;;0.20;99.90;;;;;;5333294;27;20635;-72
2021/01/04 03:05:30;;;;;;;17.30;8.27;;;0.20;99.90;;;;;;5333220;27;20186;-72
2021/01/04 03:08:02;;;;;;;17.27;8.30;;;0.20;99.90;;;;;;5332864;27;20218;-69
2021/01/04 03:10:39;;;;;;;16.07;8.50;;;0.20;99.90;;;;;;5333462;27;20589;-72
2021/01/04 03:13:29;;;;;;;20.43;8.43;;;0.20;99.90;;;;;;5332853;27;20194;-70
2021/01/04 03:20:01;;;;;;;15.90;7.97;;;0.20;99.90;;;;;;5334542;27;20233;-71
2021/01/04 03:22:33;;;;;;;19.87;8.83;;;0.20;99.90;;;;;;5338476;27;20251;-72
2021/01/04 03:25:15;;;;;;;19.27;8.43;;;0.20;99.90;;;;;;5336538;27;20201;-72
2021/01/04 03:27:47;;;;;;;13.87;7.87;;;0.20;99.90;;;;;;5333652;27;20213;-70
2021/01/04 03:30:19;;;;;;;18.50;8.73;;;0.20;99.90;;;;;;5333168;27;20193;-70
2021/01/04 03:32:50;;;;;;;22.60;8.43;;;0.20;99.90;;;;;;5332828;27;20197;-70
2021/01/04 03:35:23;;;;;;;20.17;8.83;;;0.20;99.90;;;;;;5333226;27;20560;-70
2021/01/04 03:37:54;;;;;;;22.73;9.60;;;0.20;99.90;;;;;;5332807;27;20288;-71
2021/01/04 03:40:27;;;;;;;19.70;8.93;;;0.20;99.90;;;;;;5332710;27;20205;-70
2021/01/04 03:43:00;;;;;;;19.47;8.80;;;0.20;99.90;;;;;;5314675;27;20209;-70
2021/01/04 03:45:31;;;;;;;15.60;9.13;;;0.20;99.90;;;;;;5332999;27;20190;-70
2021/01/04 03:48:04;;;;;;;24.63;10.80;;;0.20;99.90;;;;;;5335790;27;20729;-70
2021/01/04 03:50:35;;;;;;;26.43;11.20;;;0.20;99.90;;;;;;5336560;27;20201;-69
2021/01/04 03:53:06;;;;;;;25.00;10.03;;;0.20;99.90;;;;;;5336930;27;20194;-70
2021/01/04 03:55:38;;;;;;;26.43;10.40;;;0.20;99.90;;;;;;5336888;27;20194;-69
2021/01/04 03:58:10;;;;;;;23.70;11.10;;;0.20;99.90;;;;;;5318262;27;20201;-69
2021/01/04 04:00:42;;;;;;;20.30;10.13;;;0.20;99.90;;;;;;5336732;27;20197;-72
2021/01/04 04:03:13;;;;;;;20.80;9.67;;;0.10;99.90;;;;;;5336465;27;20605;-69
2021/01/04 04:05:45;;;;;;;25.23;10.67;;;0.10;99.90;;;;;;5336706;27;20191;-70
2021/01/04 04:08:16;;;;;;;24.23;11.10;;;0.10;99.90;;;;;;5336582;27;20214;-70
2021/01/04 04:10:48;;;;;;;24.60;10.57;;;0.10;99.90;;;;;;5337132;27;20190;-71
2021/01/04 04:13:19;;;;;;;25.40;11.70;;;0.10;99.90;;;;;;5336577;27;20194;-70
2021/01/04 04:15:50;;;;;;;27.63;11.50;;;0.10;99.90;;;;;;5318159;27;20550;-72
2021/01/04 04:18:21;;;;;;;21.67;10.27;;;0.10;99.90;;;;;;5336173;27;20198;-69
2021/01/04 04:20:53;;;;;;;28.00;11.57;;;0.10;99.90;;;;;;5335822;27;20213;-69
2021/01/04 04:23:24;;;;;;;21.83;10.33;;;0.10;99.90;;;;;;5335930;27;20200;-69
2021/01/04 04:25:56;;;;;;;24.40;10.77;;;0.00;99.90;;;;;;5336023;27;20194;-70
2021/01/04 04:28:27;;;;;;;25.13;10.97;;;0.00;99.90;;;;;;5336241;27;20225;-70
2021/01/04 04:30:58;;;;;;;20.00;10.03;;;0.00;99.90;;;;;;5338809;27;20625;-70
2021/01/04 04:33:30;;;;;;;20.27;10.33;;;0.00;99.90;;;;;;5339768;27;20254;-71
2021/01/04 04:36:01;;;;;;;21.87;10.30;;;0.00;99.90;;;;;;5336951;27;20190;-71
2021/01/04 04:38:33;;;;;;;26.83;11.13;;;0.00;99.90;;;;;;5336431;27;20194;-69
2021/01/04 04:41:05;;;;;;;21.90;12.40;;;0.00;99.90;;;;;;5337078;27;20186;-69
2021/01/04 04:43:41;;;;;;;19.60;10.90;;;0.00;99.90;;;;;;5336623;27;20189;-69
2021/01/04 04:46:27;;;;;;;21.80;11.13;;;0.00;99.90;;;;;;5335612;27;20212;-68
2021/01/04 04:49:11;;;;;;;19.87;10.77;;;0.00;99.90;;;;;;5317192;27;20198;-71
2021/01/04 04:52:09;;;;;;;21.20;9.73;;;0.00;99.90;;;;;;5336128;27;20195;-69
2021/01/04 04:54:52;;;;;;;19.83;10.93;;;0.10;99.90;;;;;;5320762;27;20186;-69
2021/01/04 04:58:04;;;;;;;22.43;11.00;;;0.10;99.90;;;;;;5336033;27;20632;-69
2021/01/04 05:04:50;;;;;;;20.63;10.70;;;0.10;99.90;;;;;;5336300;27;20214;-70
2021/01/04 05:07:59;;;;;;;28.23;12.20;;;0.10;99.90;;;;;;5335494;27;20221;-69
2021/01/04 05:10:35;;;;;;;26.43;12.43;;;0.10;99.90;;;;;;5335086;27;20616;-69
2021/01/04 05:13:24;;;;;;;25.23;12.67;;;0.10;99.90;;;;;;5335781;27;20639;-72
2021/01/04 05:20:32;;;;;;;27.93;12.37;;;0.10;99.90;;;;;;5335240;27;20170;-74
2021/01/04 05:23:35;;;;;;;26.10;11.73;;;0.10;99.90;;;;;;5295878;27;20233;-70
2021/01/04 05:26:27;;;;;;;21.87;11.00;;;0.10;99.90;;;;;;5227390;28;20223;-70
2021/01/04 05:29:10;;;;;;;23.00;10.37;;;0.10;99.90;;;;;;5227764;28;20208;-70
2021/01/04 05:35:40;;;;;;;18.87;9.53;;;0.10;99.90;;;;;;5227389;28;20168;-70
2021/01/04 05:38:32;;;;;;;18.23;9.60;;;0.10;99.90;;;;;;5228702;28;20216;-70
2021/01/04 05:41:28;;;;;;;18.60;9.40;;;0.10;99.90;;;;;;5211482;28;20194;-72
2021/01/04 05:48:35;;;;;;;24.67;11.33;;;0.10;99.90;;;;;;5145196;28;20242;-69
2021/01/04 05:51:09;;;;;;;22.43;11.20;;;0.10;99.90;;;;;;5145392;28;20310;-68
2021/01/04 05:53:44;;;;;;;22.53;11.77;;;0.10;99.90;;;;;;5145415;28;20293;-69
2021/01/04 05:56:24;;;;;;;25.17;12.10;;;0.10;99.90;;;;;;5145314;28;20211;-69
2021/01/04 05:59:13;;;;;;;23.40;12.73;;;0.20;99.90;;;;;;5145456;28;20188;-70
2021/01/04 06:01:46;;;;;;;27.43;13.07;;;0.20;99.90;;;;;;5145094;28;20215;-69
2021/01/04 06:04:26;;;;;;;22.17;11.03;;;0.20;99.90;;;;;;5247238;28;20229;-70
2021/01/04 06:07:07;;;;;;;25.70;11.17;;;0.20;99.90;;;;;;5251735;28;20221;-69
2021/01/04 06:09:39;;;;;;;25.03;12.70;;;0.20;99.90;;;;;;5233427;28;20243;-70
2021/01/04 06:12:26;;;;;;;33.10;13.80;;;0.20;99.90;;;;;;5252663;28;20212;-72
2021/01/04 06:18:55;;;;;;;26.90;12.53;;;0.20;99.90;;;;;;5272850;28;20663;-69
2021/01/04 06:21:42;;;;;;;29.50;14.20;;;0.20;99.90;;;;;;5290356;28;20212;-71
2021/01/04 06:24:23;;;;;;;24.27;13.07;;;0.30;99.90;;;;;;5327453;27;20221;-67
2021/01/04 06:27:08;;;;;;;27.30;12.60;;;0.30;99.90;;;;;;5333676;27;20626;-67
2021/01/04 06:29:39;;;;;;;28.23;13.50;;;0.30;99.90;;;;;;5333958;27;20201;-67
2021/01/04 06:32:23;;;;;;;24.60;12.60;;;0.30;99.90;;;;;;5333480;27;20193;-68
2021/01/04 06:35:03;;;;;;;27.37;12.53;;;0.30;99.90;;;;;;5333693;27;20194;-69
2021/01/04 06:37:34;;;;;;;28.30;13.40;;;0.30;99.90;;;;;;5333732;27;20522;-69
2021/01/04 06:40:26;;;;;;;27.07;13.03;;;0.30;99.90;;;;;;5333335;27;20210;-67
2021/01/04 06:43:07;;;;;;;27.03;13.50;;;0.30;99.90;;;;;;5333274;27;20201;-70
2021/01/04 06:49:48;;;;;;;29.33;13.47;;;0.30;99.90;;;;;;5333365;27;20595;-67
2021/01/04 06:52:32;;;;;;;27.20;13.57;;;0.30;99.90;;;;;;5333299;27;20205;-67
2021/01/04 06:55:41;;;;;;;26.37;14.07;;;0.30;99.90;;;;;;5333022;27;20194;-68
2021/01/04 06:58:49;;;;;;;32.87;13.43;;;0.30;99.90;;;;;;5333434;27;20203;-67
2021/01/04 07:01:26;;;;;;;28.57;13.40;;;0.40;99.90;;;;;;5334295;27;20650;-70
2021/01/04 07:04:19;;;;;;;30.13;13.80;;;0.40;99.90;;;;;;5334535;27;20229;-69
2021/01/04 07:07:09;;;;;;;32.33;13.30;;;0.40;99.90;;;;;;5333470;27;20670;-67
2021/01/04 07:10:17;;;;;;;31.57;13.30;;;0.40;99.90;;;;;;5333164;27;20201;-68
2021/01/04 07:13:21;;;;;;;32.37;14.70;;;0.40;99.90;;;;;;5333367;27;20707;-67
2021/01/04 07:20:16;;;;;;;31.57;14.53;;;0.40;99.90;;;;;;5333667;27;20173;-67
2021/01/04 07:23:03;;;;;;;28.93;14.27;;;0.40;99.90;;;;;;5337934;27;20190;-70
2021/01/04 07:26:06;;;;;;;33.03;16.07;;;0.40;99.90;;;;;;5337295;27;20226;-72
2021/01/04 07:29:04;;;;;;;34.97;14.87;;;0.40;99.90;;;;;;5336559;27;20210;-70
2021/01/04 07:31:42;;;;;;;31.73;15.37;;;0.40;99.90;;;;;;5334429;27;20643;-72
2021/01/04 07:34:30;;;;;;;26.77;14.33;;;0.40;99.90;;;;;;5336812;27;20200;-70
2021/01/04 07:37:34;;;;;;;24.43;12.57;;;0.40;99.90;;;;;;5336704;27;20190;-70
2021/01/04 07:40:39;;;;;;;21.20;11.67;;;0.40;99.90;;;;;;5211976;28;20215;-69
2021/01/04 07:43:51;;;;;;;25.67;10.93;;;0.40;99.90;;;;;;5212765;28;20219;-70
2021/01/04 07:50:49;;;;;;;26.47;13.53;;;0.40;99.90;;;;;;5209604;28;20622;-74
2021/01/04 07:53:35;;;;;;;27.70;11.93;;;0.40;99.90;;;;;;5208661;28;20200;-72
2021/01/04 07:56:25;;;;;;;25.50;11.37;;;0.40;99.90;;;;;;5208391;28;20207;-72
2021/01/04 07:59:28;;;;;;;22.07;11.00;;;0.40;99.90;;;;;;5208737;28;20198;-71
2021/01/04 08:02:15;;;;;;;23.03;11.73;;;0.40;99.90;;;;;;5208945;28;20656;-73
2021/01/04 08:05:05;;;;;;;24.67;12.00;;;0.40;99.90;;;;;;5208206;28;20236;-76
2021/01/04 08:07:52;;;;;;;25.83;12.83;;;0.40;99.90;;;;;;5208194;28;20252;-74
2021/01/04 08:11:01;;;;;;;28.30;12.67;;;0.50;99.90;;;;;;5209478;28;20206;-74
2021/01/04 08:13:50;;;;;;;27.97;13.63;;;0.50;99.90;;;;;;5209524;28;20201;-75
2021/01/04 08:20:08;;;;;;;24.23;11.70;;;0.50;99.90;;;;;;5313802;27;20236;-74
2021/01/04 08:23:14;;;;;;;25.43;12.53;;;0.50;99.90;;;;;;5318557;27;20239;-74
2021/01/04 08:26:21;;;;;;;28.87;14.23;;;0.50;99.90;;;;;;5344157;27;20282;-74
2021/01/04 08:29:04;;;;;;;23.87;13.30;;;0.50;99.90;;;;;;5234623;28;20700;-74
2021/01/04 08:31:41;;;;;;;33.20;17.90;;;0.50;99.90;;;;;;5240824;28;20432;-78
2021/01/04 08:34:20;;;;;;;32.00;13.63;;;0.50;99.90;;;;;;5228523;28;20209;-73
2021/01/04 08:36:59;;;;;;;20.70;11.87;;;0.50;99.90;;;;;;5230217;28;20530;-75
2021/01/04 08:39:38;;;;;;;21.60;11.83;;;0.50;99.90;;;;;;5231527;28;20685;-76
2021/01/04 08:42:23;;;;;;;30.90;13.87;;;0.50;99.90;;;;;;5230011;28;20193;-75
2021/01/04 08:45:11;;;;;;;25.80;13.17;;;0.50;99.90;;;;;;5233268;28;20204;-74
2021/01/04 08:47:52;;;;;;;29.60;14.00;;;0.50;99.90;;;;;;5232889;28;20772;-74
2021/01/04 08:50:30;;;;;;;29.33;14.90;;;0.50;99.90;;;;;;5233961;28;20214;-75
2021/01/04 08:53:13;;;;;;;29.00;15.37;;;0.50;99.90;;;;;;5234285;28;20213;-75
2021/01/04 08:56:17;;;;;;;29.10;14.60;;;0.50;99.90;;;;;;5234350;28;20617;-80
2021/01/04 08:59:18;;;;;;;30.83;14.93;;;0.50;99.90;;;;;;5227909;28;20213;-72
2021/01/04 09:02:41;;;;;;;23.50;13.33;;;0.50;99.90;;;;;;5213487;28;20728;-74
2021/01/04 09:05:41;;;;;;;28.93;14.07;;;0.50;99.90;;;;;;5263968;27;20572;-73
2021/01/04 09:08:35;;;;;;;27.97;15.20;;;0.50;99.90;;;;;;5342925;27;20222;-81
2021/01/04 09:11:28;;;;;;;27.97;13.80;;;0.50;99.90;;;;;;5350089;27;20206;-81
2021/01/04 09:14:47;;;;;;;25.17;12.97;;;0.50;99.90;;;;;;5329942;27;20194;-83
2021/01/04 09:21:54;;;;;;;25.30;12.97;;;0.60;99.90;;;;;;5343510;27;20197;-76
2021/01/04 09:24:36;;;;;;;28.40;14.20;;;0.60;99.90;;;;;;5341978;27;20198;-82
2021/01/04 09:27:44;;;;;;;24.97;12.80;;;0.60;99.90;;;;;;5344649;27;20233;-81
2021/01/04 09:30:49;;;;;;;24.83;11.87;;;0.60;99.90;;;;;;5326586;27;20198;-82
2021/01/04 09:37:24;;;;;;;20.83;10.23;;;0.60;99.90;;;;;;5340445;27;20166;-78
2021/01/04 09:40:13;;;;;;;19.73;10.77;;;0.60;99.90;;;;;;5339176;27;20201;-78
2021/01/04 09:43:11;;;;;;;22.50;11.63;;;0.70;99.90;;;;;;5321857;27;20194;-77
2021/01/04 09:46:10;;;;;;;21.40;11.43;;;0.60;99.90;;;;;;5338085;27;20301;-78
2021/01/04 09:49:39;;;;;;;22.70;11.37;;;0.70;99.90;;;;;;5341275;27;20572;-76
2021/01/04 09:53:17;;;;;;;21.90;12.00;;;0.60;99.90;;;;;;5229760;28;20201;-76
2021/01/04 09:56:26;;;;;;;23.37;12.87;;;0.70;99.90;;;;;;5138959;28;20206;-77
2021/01/04 09:59:27;;;;;;;24.67;14.00;;;0.70;99.90;;;;;;5187501;28;20297;-74
2021/01/04 10:06:31;;;;;;;27.70;13.73;;;0.70;99.90;;;;;;5167492;28;20195;-79
2021/01/04 10:09:26;;;;;;;28.37;14.47;;;0.70;99.90;;;;;;5171130;28;20784;-77
2021/01/04 10:12:13;;;;;;;26.90;13.80;;;0.80;99.90;;;;;;5169311;28;20797;-82
2021/01/04 10:15:25;;;;;;;24.97;14.20;;;0.80;99.90;;;;;;5168081;28;20212;-79
2021/01/04 10:22:40;;;;;;;27.23;13.13;;;0.80;99.90;;;;;;5166305;28;20226;-77
2021/01/04 10:25:34;;;;;;;23.73;13.23;;;0.70;99.90;;;;;;5169693;28;20192;-76
2021/01/04 10:28:18;;;;;;;25.20;12.73;;;0.80;99.90;;;;;;5245441;27;20266;-75
2021/01/04 10:31:35;;;;;;;28.33;12.07;;;0.70;99.90;;;;;;5314024;27;20243;-79
2021/01/04 10:38:28;;;;;;;24.80;12.93;;;0.70;99.90;;;;;;5312579;27;20239;-80
2021/01/04 10:41:20;;;;;;;24.10;12.97;;;0.80;99.90;;;;;;5313264;27;20187;-79
2021/01/04 10:44:23;;;;;;;25.70;13.20;;;0.80;99.90;;;;;;5311725;27;20252;-77
2021/01/04 10:51:25;;;;;;;28.50;13.37;;;0.80;99.90;;;;;;5306608;27;20628;-77
2021/01/04 10:54:38;;;;;;;25.03;12.50;;;0.80;99.90;;;;;;5306865;27;20410;-80
2021/01/04 10:57:41;;;;;;;29.20;13.60;;;0.80;99.90;;;;;;5309069;27;20256;-80
2021/01/04 11:00:52;;;;;;;25.10;11.90;;;0.80;99.90;;;;;;5311129;27;20611;-82
2021/01/04 11:07:40;;;;;;;22.93;12.27;;;0.80;99.90;;;;;;5306230;28;20213;-82
2021/01/04 11:10:33;;;;;;;25.50;12.40;;;0.80;99.90;;;;;;5290515;28;20226;-76
2021/01/04 11:13:31;;;;;;;22.70;12.23;;;0.80;99.90;;;;;;5292580;28;20199;-77
2021/01/04 11:16:22;;;;;;;24.50;12.87;;;0.80;99.90;;;;;;5288666;28;20290;-76
2021/01/04 11:23:11;;;;;;;22.53;12.10;;;0.90;99.90;;;;;;5310345;28;20181;-80
2021/01/04 11:29:14;;;;;;;26.60;13.00;;;0.90;99.90;;;;;;5302191;28;20247;-84
2021/01/04 11:31:56;;;;;;;25.30;12.67;;;0.90;99.90;;;;;;5311149;28;20237;-81
2021/01/04 11:35:11;;;;;;;28.00;12.40;;;0.90;99.90;;;;;;5313826;28;20187;-79
2021/01/04 11:38:10;;;;;;;26.60;12.97;;;0.90;99.90;;;;;;5316198;28;20199;-81
2021/01/04 11:40:50;;;;;;;29.13;14.17;;;0.90;99.90;;;;;;5299117;28;20282;-81
2021/01/04 11:43:27;;;;;;;24.13;13.73;;;0.80;99.90;;;;;;5314281;28;20671;-82
2021/01/04 11:46:11;;;;;;;24.57;13.13;;;0.80;99.90;;;;;;5316985;28;20205;-78
2021/01/04 11:52:49;;;;;;;29.17;13.80;;;0.90;99.90;;;;;;5318549;28;20169;-81
2021/01/04 11:55:31;;;;;;;26.60;12.83;;;0.90;99.90;;;;;;5294495;28;20199;-81
2021/01/04 11:58:27;;;;;;;24.53;12.70;;;0.90;99.90;;;;;;5297576;28;20207;-82
2021/01/04 12:01:03;;;;;;;22.73;12.30;;;0.90;99.90;;;;;;5316740;28;20201;-80
2021/01/04 12:03:35;;;;;;;23.60;12.27;;;0.80;99.90;;;;;;5309797;28;20230;-76
2021/01/04 12:06:11;;;;;;;25.03;11.97;;;0.80;99.90;;;;;;5323402;27;20309;-76
2021/01/04 12:08:45;;;;;;;24.00;11.90;;;0.80;99.90;;;;;;5335311;27;20257;-75
2021/01/04 12:11:23;;;;;;;23.93;12.20;;;0.80;99.90;;;;;;5332504;27;20201;-78
2021/01/04 12:14:02;;;;;;;23.07;12.57;;;0.80;99.90;;;;;;5336639;27;20222;-80
2021/01/04 12:17:03;;;;;;;23.97;12.93;;;0.80;99.90;;;;;;5318755;27;20194;-76
2021/01/04 12:19:42;;;;;;;28.23;14.63;;;0.80;99.90;;;;;;5336072;27;20266;-77
2021/01/04 12:22:28;;;;;;;27.63;14.00;;;0.80;99.90;;;;;;5337724;27;20191;-80
2021/01/04 12:25:14;;;;;;;26.43;14.53;;;0.80;99.90;;;;;;5339538;27;20202;-74
2021/01/04 12:27:54;;;;;;;24.20;12.83;;;0.80;99.90;;;;;;5317227;27;20755;-78
2021/01/04 12:30:38;;;;;;;23.87;12.13;;;0.80;99.90;;;;;;5317782;27;20229;-76
2021/01/04 12:37:12;;;;;;;22.33;12.43;;;0.80;99.90;;;;;;5333979;27;20260;-78
2021/01/04 12:40:08;;;;;;;24.30;11.93;;;0.70;99.90;;;;;;5338942;27;20201;-79
2021/01/04 12:43:01;;;;;;;25.00;12.40;;;0.70;99.90;;;;;;5320203;27;20530;-76
2021/01/04 12:45:51;;;;;;;28.30;12.80;;;0.70;99.90;;;;;;5334011;27;20259;-75
2021/01/04 12:48:31;;;;;;;22.40;12.20;;;0.70;99.90;;;;;;5317227;27;20256;-76
2021/01/04 12:51:17;;;;;;;22.60;11.43;;;0.70;99.90;;;;;;5336476;27;20608;-78
2021/01/04 12:53:56;;;;;;;20.63;11.73;;;0.70;99.90;;;;;;5315231;27;20281;-77
2021/01/04 12:56:32;;;;;;;23.53;12.40;;;0.70;99.90;;;;;;5318337;27;20626;-78
2021/01/04 12:59:16;;;;;;;24.47;12.27;;;0.70;99.90;;;;;;5318302;27;20198;-80
2021/01/04 13:01:52;;;;;;;25.70;11.63;;;0.60;99.90;;;;;;5337064;27;20221;-78
2021/01/04 13:04:31;;;;;;;24.17;12.93;;;0.60;99.90;;;;;;5335109;27;20200;-71
2021/01/04 13:07:18;;;;;;;27.27;12.87;;;0.60;99.90;;;;;;5336561;27;20232;-76
2021/01/04 13:09:54;;;;;;;28.10;13.43;;;0.60;99.90;;;;;;5317789;27;20237;-75
2021/01/04 13:12:37;;;;;;;28.80;14.57;;;0.60;99.90;;;;;;5283687;27;20450;-74
2021/01/04 13:15:22;;;;;;;27.37;14.33;;;0.60;99.90;;;;;;5303123;27;20186;-78
2021/01/04 13:18:12;;;;;;;25.60;13.73;;;0.60;99.90;;;;;;5337944;27;20189;-81
2021/01/04 13:21:08;;;;;;;22.37;12.23;;;0.60;99.90;;;;;;5258159;28;20205;-81
2021/01/04 13:23:51;;;;;;;22.17;11.63;;;0.60;99.90;;;;;;5249512;28;20257;-77
2021/01/04 13:26:41;;;;;;;20.97;11.20;;;0.60;99.90;;;;;;5233087;28;20258;-78
2021/01/04 13:29:22;;;;;;;19.23;11.07;;;0.60;99.90;;;;;;5249051;28;20224;-74
2021/01/04 13:32:00;;;;;;;22.60;12.17;;;0.60;99.90;;;;;;5232726;28;20205;-71
2021/01/04 13:38:35;;;;;;;29.00;13.07;;;0.60;99.90;;;;;;5249464;28;20180;-79
2021/01/04 13:41:14;;;;;;;22.70;11.70;;;0.60;99.90;;;;;;5256053;28;20690;-82
2021/01/04 13:44:11;;;;;;;22.60;11.93;;;0.60;99.90;;;;;;5256482;28;20200;-80
2021/01/04 13:47:24;;;;;;;22.27;11.87;;;0.70;99.90;;;;;;5335767;27;20251;-80
2021/01/04 13:50:11;;;;;;;23.50;11.47;;;0.60;99.90;;;;;;5335392;27;20231;-83
2021/01/04 13:52:55;;;;;;;26.77;12.57;;;0.70;99.90;;;;;;5335339;27;20193;-77
2021/01/04 13:55:43;;;;;;;19.83;10.63;;;0.60;99.90;;;;;;5317784;27;20202;-78
2021/01/04 13:58:27;;;;;;;23.57;11.67;;;0.60;99.90;;;;;;5340363;27;20190;-78
2021/01/04 14:01:13;;;;;;;24.17;11.53;;;0.60;99.90;;;;;;5334482;27;20280;-81
2021/01/04 14:07:49;;;;;;;22.40;11.40;;;0.60;99.90;;;;;;5332323;27;20251;-75
2021/01/04 14:10:36;;;;;;;23.67;12.47;;;0.60;99.90;;;;;;5316315;27;20189;-76
2021/01/04 14:13:26;;;;;;;29.17;13.53;;;0.60;99.90;;;;;;5333959;27;20228;-76
2021/01/04 14:16:14;;;;;;;23.80;12.13;;;0.70;99.90;;;;;;5332961;27;20205;-77
2021/01/04 14:22:42;;;;;;;23.67;11.97;;;0.70;99.90;;;;;;5334508;27;20250;-77
2021/01/04 14:25:14;;;;;;;23.17;11.90;;;0.70;99.90;;;;;;5333754;27;20204;-78
2021/01/04 14:27:46;;;;;;;22.93;11.50;;;0.70;99.90;;;;;;5333513;27;20245;-77
2021/01/04 14:30:17;;;;;;;20.07;11.47;;;0.70;99.90;;;;;;5332980;27;20197;-77
2021/01/04 14:32:49;;;;;;;20.40;11.53;;;0.70;99.90;;;;;;5333645;27;20190;-77
2021/01/04 14:39:10;;;;;;;20.27;11.53;;;0.70;99.90;;;;;;5335314;27;20166;-77
2021/01/04 14:41:41;;;;;;;20.07;10.80;;;0.70;99.90;;;;;;5333391;27;20197;-77
2021/01/04 14:44:14;;;;;;;21.33;11.07;;;0.70;99.90;;;;;;5333684;27;20198;-77
2021/01/04 14:46:46;;;;;;;18.13;11.00;;;0.70;99.90;;;;;;5333876;27;20561;-77
2021/01/04 14:49:17;;;;;;;21.40;11.60;;;0.70;99.90;;;;;;5335288;27;20214;-75
2021/01/04 14:51:48;;;;;;;22.33;12.17;;;0.80;99.90;;;;;;5333374;27;20187;-78
2021/01/04 14:54:28;;;;;;;23.23;11.87;;;0.80;99.90;;;;;;5333789;27;20667;-76
2021/01/04 14:57:00;;;;;;;22.40;12.13;;;0.80;99.90;;;;;;5333247;27;20556;-78
2021/01/04 14:59:31;;;;;;;21.97;12.43;;;0.80;99.90;;;;;;5333444;27;20191;-75
2021/01/04 15:02:04;;;;;;;21.23;12.90;;;0.80;99.90;;;;;;5333289;27;20189;-76
2021/01/04 15:04:36;;;;;;;27.03;12.63;;;0.80;99.90;;;;;;5333322;27;20187;-80
2021/01/04 15:07:08;;;;;;;29.17;14.03;;;0.80;99.90;;;;;;5333288;27;20322;-79
2021/01/04 15:09:39;;;;;;;29.87;16.40;;;0.80;99.90;;;;;;5333223;27;20735;-78
2021/01/04 15:12:11;;;;;;;33.20;16.83;;;0.80;99.90;;;;;;5316889;27;20190;-72
2021/01/04 15:14:42;;;;;;;36.77;18.33;;;0.80;99.90;;;;;;5333152;27;20190;-76
2021/01/04 15:17:14;;;;;;;34.40;17.97;;;0.80;99.90;;;;;;5332828;27;20571;-75
2021/01/04 15:19:45;;;;;;;34.50;18.07;;;0.80;99.90;;;;;;5333288;27;20193;-77
2021/01/04 15:22:19;;;;;;;31.03;15.90;;;0.80;99.90;;;;;;5334496;27;20215;-78
2021/01/04 15:24:51;;;;;;;27.40;14.90;;;0.80;99.90;;;;;;5334826;27;20190;-81
2021/01/04 15:27:24;;;;;;;28.97;14.73;;;0.80;99.90;;;;;;5336143;27;20560;-82
2021/01/04 15:30:21;;;;;;;27.20;15.40;;;0.80;99.90;;;;;;5340866;27;20219;-80
2021/01/04 15:32:54;;;;;;;31.60;16.10;;;0.80;99.90;;;;;;5342735;27;20198;-80
2021/01/04 15:35:28;;;;;;;32.77;16.57;;;0.80;99.90;;;;;;5288649;27;20240;-80
2021/01/04 15:38:07;;;;;;;30.33;14.83;;;0.80;99.90;;;;;;5242189;27;20292;-80
2021/01/04 15:40:40;;;;;;;26.03;15.10;;;0.80;99.90;;;;;;5293932;27;20194;-81
2021/01/04 15:43:12;;;;;;;29.37;15.43;;;0.80;99.90;;;;;;5320377;27;20235;-83
2021/01/04 15:45:46;;;;;;;31.33;14.63;;;0.80;99.90;;;;;;5328558;27;20194;-83
2021/01/04 15:48:18;;;;;;;30.60;16.10;;;0.80;99.90;;;;;;5327989;27;20214;-83
2021/01/04 15:50:51;;;;;;;29.10;16.30;;;0.80;99.90;;;;;;5329263;27;20198;-84
2021/01/04 15:53:23;;;;;;;33.67;16.83;;;0.80;99.90;;;;;;5338673;27;20202;-82
2021/01/04 15:55:55;;;;;;;31.03;17.43;;;0.80;99.90;;;;;;5335509;27;20194;-79
2021/01/04 15:58:26;;;;;;;29.83;17.43;;;0.80;99.90;;;;;;5344709;27;20190;-79
2021/01/04 16:00:58;;;;;;;35.20;16.90;;;0.80;99.90;;;;;;5328319;27;20197;-80
2021/01/04 16:03:29;;;;;;;26.77;15.13;;;0.80;99.90;;;;;;5343255;27;20528;-80
2021/01/04 16:06:01;;;;;;;32.57;15.90;;;0.80;99.90;;;;;;5339518;27;20676;-79
2021/01/04 16:08:33;;;;;;;25.20;14.73;;;0.80;99.90;;;;;;5318987;27;20214;-83
2021/01/04 16:11:04;;;;;;;25.13;14.27;;;0.70;99.90;;;;;;5337511;27;20194;-80
2021/01/04 16:13:41;;;;;;;26.60;13.27;;;0.70;99.90;;;;;;5339261;27;20201;-81